Time;durP1;ratioP1;P1;durP2;ratioP2;P2;SDS_P1;SDS_P2;PMS_P1;PMS_P2;Temp;Humidity;BMP_temperature;BMP_pressure;BME280_temperature;BME280_humidity;BME280_pressure;Samples;Min_cycle;Max_cycle;Signal;HPM_P1;HPM_P2
2022/04/19 00:00:42;;;;;;;8.60;4.07;;;12.50;71.80;;;;;;4993041;28;20037;-69
2022/04/19 00:03:10;;;;;;;8.17;4.40;;;12.50;72.00;;;;;;4992817;28;20034;-69
2022/04/19 00:05:37;;;;;;;7.80;4.20;;;12.40;72.10;;;;;;4992685;28;20403;-69
2022/04/19 00:08:04;;;;;;;8.97;4.40;;;12.40;72.20;;;;;;4992625;28;20023;-69
2022/04/19 00:10:30;;;;;;;7.63;4.40;;;12.40;72.20;;;;;;4992319;28;20030;-69
2022/04/19 00:12:57;;;;;;;9.00;4.70;;;12.40;72.30;;;;;;4993035;28;20033;-69
2022/04/19 00:15:27;;;;;;;7.00;3.90;;;12.40;72.30;;;;;;4993183;28;20117;-69
2022/04/19 00:17:54;;;;;;;8.30;4.90;;;12.40;72.30;;;;;;4992742;28;20042;-69
2022/04/19 00:20:21;;;;;;;8.70;4.33;;;12.30;72.50;;;;;;4993161;28;20037;-69
2022/04/19 00:22:50;;;;;;;8.20;4.70;;;12.40;72.50;;;;;;4992155;28;20105;-69
2022/04/19 00:25:17;;;;;;;7.32;3.97;;;12.30;72.50;;;;;;4992761;28;20030;-69
2022/04/19 00:27:43;;;;;;;8.50;4.60;;;12.30;72.70;;;;;;4992384;28;20034;-70
2022/04/19 00:30:10;;;;;;;8.33;4.23;;;12.30;72.60;;;;;;4992395;28;20038;-69
2022/04/19 00:32:36;;;;;;;7.13;4.53;;;12.30;72.80;;;;;;4974807;28;20034;-68
2022/04/19 00:35:04;;;;;;;7.60;4.90;;;12.30;72.90;;;;;;4991062;28;20113;-69
2022/04/19 00:37:31;;;;;;;6.67;4.30;;;12.20;73.20;;;;;;4992005;28;20105;-69
2022/04/19 00:39:58;;;;;;;7.77;4.63;;;12.20;73.40;;;;;;4992244;28;20065;-69
2022/04/19 00:42:28;;;;;;;8.67;4.50;;;12.10;73.30;;;;;;4992072;28;20466;-69
2022/04/19 00:44:59;;;;;;;8.23;4.93;;;12.10;73.40;;;;;;4990920;28;20053;-69
2022/04/19 00:47:26;;;;;;;6.70;4.10;;;12.10;73.60;;;;;;4990554;28;20054;-68
2022/04/19 00:49:52;;;;;;;7.37;4.50;;;12.10;73.70;;;;;;4974527;28;20159;-69
2022/04/19 00:52:19;;;;;;;8.07;4.20;;;12.10;73.70;;;;;;4991588;28;20022;-69
2022/04/19 00:54:47;;;;;;;7.60;4.27;;;12.20;73.60;;;;;;4990620;28;20034;-69
2022/04/19 00:57:14;;;;;;;8.02;4.80;;;12.20;73.60;;;;;;4974430;28;20458;-69
2022/04/19 00:59:45;;;;;;;8.57;5.13;;;12.10;73.70;;;;;;4990664;28;20038;-70
2022/04/19 01:02:12;;;;;;;8.52;4.70;;;12.20;73.70;;;;;;4990467;28;20057;-68
2022/04/19 01:04:38;;;;;;;8.17;4.67;;;12.10;73.70;;;;;;4990512;28;20399;-69
2022/04/19 01:07:08;;;;;;;7.43;4.50;;;12.00;73.90;;;;;;4990283;28;20034;-69
2022/04/19 01:09:35;;;;;;;6.80;4.60;;;12.00;74.20;;;;;;4990372;28;20065;-69
2022/04/19 01:14:48;;;;;;;9.30;4.67;;;12.00;74.20;;;;;;4991630;28;20060;-70
2022/04/19 01:17:16;;;;;;;8.77;5.00;;;12.00;74.60;;;;;;5006521;28;20164;-69
2022/04/19 01:19:46;;;;;;;9.90;5.33;;;12.00;74.80;;;;;;4990394;28;20050;-70
2022/04/19 01:22:17;;;;;;;7.80;4.93;;;11.90;74.90;;;;;;4989539;28;20396;-68
2022/04/19 01:24:45;;;;;;;7.53;4.97;;;11.90;75.00;;;;;;4990225;28;20034;-69
2022/04/19 01:27:14;;;;;;;7.73;5.20;;;12.00;75.10;;;;;;4990211;28;20084;-70
2022/04/19 01:29:43;;;;;;;7.82;5.38;;;11.90;74.90;;;;;;5006605;28;20030;-69
2022/04/19 01:32:11;;;;;;;9.67;5.47;;;11.80;75.00;;;;;;4989408;28;20037;-68
2022/04/19 01:34:37;;;;;;;10.43;5.60;;;11.80;76.00;;;;;;4989643;28;20038;-68
2022/04/19 01:37:09;;;;;;;9.20;5.37;;;11.70;75.80;;;;;;4990035;28;20027;-69
2022/04/19 01:42:21;;;;;;;11.20;6.10;;;11.60;76.30;;;;;;4990268;28;20454;-69
2022/04/19 01:44:53;;;;;;;9.23;5.43;;;11.50;76.30;;;;;;5006670;28;20034;-69
2022/04/19 01:47:20;;;;;;;9.83;5.37;;;11.60;76.50;;;;;;4989934;28;20084;-69
2022/04/19 01:49:49;;;;;;;10.20;5.45;;;11.60;76.30;;;;;;4990106;28;20037;-69
2022/04/19 01:52:15;;;;;;;10.90;6.13;;;11.60;76.50;;;;;;4991318;28;20022;-68
2022/04/19 01:54:42;;;;;;;10.57;5.90;;;11.60;76.40;;;;;;4989989;28;20133;-68
2022/04/19 01:57:12;;;;;;;11.40;5.73;;;11.60;76.50;;;;;;4989949;28;20030;-69
2022/04/19 01:59:47;;;;;;;11.10;5.60;;;11.60;76.60;;;;;;4990429;28;20053;-69
2022/04/19 02:02:16;;;;;;;9.50;5.70;;;11.50;76.40;;;;;;4990237;28;20031;-69
2022/04/19 02:04:42;;;;;;;9.17;5.53;;;11.50;76.50;;;;;;5006639;28;20069;-69
2022/04/19 02:07:08;;;;;;;9.37;5.67;;;11.60;76.50;;;;;;4990181;28;20054;-69
2022/04/19 02:09:34;;;;;;;12.97;6.13;;;11.60;76.50;;;;;;4991480;28;20039;-68
2022/04/19 02:12:04;;;;;;;11.82;6.20;;;11.50;76.70;;;;;;4990112;28;20077;-69
2022/04/19 02:14:49;;;;;;;9.33;6.10;;;11.50;77.00;;;;;;4991309;28;20092;-69
2022/04/19 02:17:22;;;;;;;10.13;6.00;;;11.40;77.10;;;;;;4989885;28;20035;-69
2022/04/19 02:19:48;;;;;;;9.93;5.00;;;11.40;77.30;;;;;;4989908;28;20129;-68
2022/04/19 02:22:14;;;;;;;10.57;5.80;;;11.40;77.50;;;;;;4991162;28;20068;-68
2022/04/19 02:24:40;;;;;;;10.87;5.80;;;11.40;77.70;;;;;;4989793;28;20038;-68
2022/04/19 02:27:07;;;;;;;9.80;6.00;;;11.30;77.70;;;;;;4990886;28;20033;-69
2022/04/19 02:29:33;;;;;;;10.23;6.23;;;11.40;77.50;;;;;;4989662;28;20399;-68
2022/04/19 02:32:00;;;;;;;8.67;5.70;;;11.40;77.50;;;;;;4991623;28;20026;-68
2022/04/19 02:34:28;;;;;;;10.07;6.23;;;11.40;78.00;;;;;;4998679;22;20054;-79
2022/04/19 02:36:54;;;;;;;11.90;5.97;;;11.30;77.90;;;;;;4973300;28;20235;-79
2022/04/19 02:39:21;;;;;;;9.60;5.47;;;11.30;78.10;;;;;;4974074;28;20058;-79
2022/04/19 02:41:50;;;;;;;10.43;5.73;;;11.30;78.20;;;;;;4973740;28;20030;-79
2022/04/19 02:44:16;;;;;;;9.03;5.53;;;11.20;78.00;;;;;;4973554;28;20023;-79
2022/04/19 02:46:51;;;;;;;11.00;6.00;;;11.20;78.20;;;;;;4973538;28;20549;-79
2022/04/19 02:49:17;;;;;;;8.93;5.60;;;11.20;78.50;;;;;;4973706;28;20122;-79
2022/04/19 02:51:43;;;;;;;10.00;6.40;;;11.10;78.70;;;;;;4972998;28;20101;-79
2022/04/19 02:54:08;;;;;;;12.33;6.03;;;11.00;79.10;;;;;;4974954;28;20037;-79
2022/04/19 02:56:34;;;;;;;9.57;6.20;;;11.00;79.10;;;;;;4974553;28;20027;-79
2022/04/19 02:59:01;;;;;;;9.77;5.60;;;11.00;80.00;;;;;;4973350;28;20031;-79
2022/04/19 03:01:27;;;;;;;9.60;5.43;;;11.00;79.40;;;;;;4972814;28;20522;-79
2022/04/19 03:03:53;;;;;;;10.83;6.43;;;10.90;79.30;;;;;;4973007;28;20031;-79
2022/04/19 03:06:19;;;;;;;10.43;6.03;;;10.90;79.40;;;;;;4974540;28;20089;-79
2022/04/19 03:08:45;;;;;;;10.37;5.40;;;10.90;79.50;;;;;;4972876;28;20434;-78
2022/04/19 03:11:12;;;;;;;10.67;6.10;;;11.00;79.60;;;;;;4972502;28;20031;-79
2022/04/19 03:13:38;;;;;;;11.70;6.30;;;11.00;80.10;;;;;;4973942;28;20290;-79
2022/04/19 03:16:05;;;;;;;9.87;5.87;;;10.90;79.50;;;;;;4972303;28;20118;-79
2022/04/19 03:18:32;;;;;;;12.27;6.20;;;11.00;79.70;;;;;;4972756;28;20062;-79
2022/04/19 03:20:58;;;;;;;11.57;6.17;;;11.00;79.70;;;;;;4973113;28;20077;-79
2022/04/19 03:28:57;;;;;;;9.83;6.53;;;11.00;79.70;;;;;;4972658;28;20040;-79
2022/04/19 03:31:23;;;;;;;11.80;6.03;;;10.90;79.80;;;;;;4972353;28;20119;-79
2022/04/19 03:33:52;;;;;;;10.27;6.33;;;10.90;79.70;;;;;;4972350;28;20031;-79
2022/04/19 03:36:20;;;;;;;10.70;6.38;;;10.90;79.90;;;;;;4972699;28;20553;-79
2022/04/19 03:38:47;;;;;;;12.57;6.60;;;10.90;79.90;;;;;;4972495;28;20034;-79
2022/04/19 03:41:13;;;;;;;11.50;6.37;;;10.90;79.90;;;;;;4972557;28;20138;-79
2022/04/19 03:43:41;;;;;;;10.70;6.47;;;10.90;80.00;;;;;;4972599;28;20475;-79
2022/04/19 03:46:10;;;;;;;12.37;6.67;;;10.90;80.30;;;;;;4973584;28;20062;-79
2022/04/19 03:48:36;;;;;;;11.77;6.40;;;10.80;80.30;;;;;;4971919;28;20023;-79
2022/04/19 03:51:03;;;;;;;10.03;6.80;;;10.70;80.30;;;;;;4973562;28;20446;-79
2022/04/19 03:53:32;;;;;;;10.17;6.10;;;10.70;80.60;;;;;;4973388;28;20403;-79
2022/04/19 03:55:59;;;;;;;11.20;6.63;;;10.60;80.60;;;;;;4971925;28;20030;-79
2022/04/19 03:58:29;;;;;;;10.23;7.00;;;10.70;80.60;;;;;;4971792;28;20121;-79
2022/04/19 04:00:55;;;;;;;9.63;6.00;;;10.60;80.60;;;;;;4971694;28;20159;-79
2022/04/19 04:03:22;;;;;;;10.17;6.50;;;10.60;80.70;;;;;;4971622;28;20113;-79
2022/04/19 04:05:49;;;;;;;9.97;6.23;;;10.70;80.70;;;;;;4971693;28;20031;-79
2022/04/19 04:08:15;;;;;;;11.50;7.00;;;10.70;80.50;;;;;;4971179;28;20483;-79
2022/04/19 04:10:51;;;;;;;12.93;7.60;;;10.70;80.40;;;;;;4971819;28;20070;-79
2022/04/19 04:13:19;;;;;;;10.43;6.90;;;10.80;80.40;;;;;;4971618;28;20614;-80
2022/04/19 04:15:44;;;;;;;14.83;7.63;;;10.70;80.40;;;;;;4971326;28;20030;-82
2022/04/19 04:18:10;;;;;;;12.23;6.70;;;10.70;80.40;;;;;;4971358;28;20039;-80
2022/04/19 04:20:36;;;;;;;10.77;6.40;;;10.70;80.40;;;;;;4971730;28;20173;-78
2022/04/19 04:23:02;;;;;;;12.57;6.83;;;10.70;80.40;;;;;;4969421;28;20484;-84
2022/04/19 04:25:28;;;;;;;11.43;7.20;;;10.80;80.40;;;;;;4945645;28;20027;-80
2022/04/19 04:27:54;;;;;;;12.60;6.60;;;10.70;80.30;;;;;;4969253;28;20133;-81
2022/04/19 04:30:22;;;;;;;11.83;6.87;;;10.70;81.90;;;;;;4970112;28;20403;-82
2022/04/19 04:32:56;;;;;;;12.90;7.30;;;10.60;81.20;;;;;;4969487;28;20115;-81
2022/04/19 04:35:21;;;;;;;13.70;7.53;;;10.60;81.00;;;;;;4971348;28;20602;-81
2022/04/19 04:37:47;;;;;;;12.03;7.60;;;10.70;80.80;;;;;;4968841;28;20442;-81
2022/04/19 04:40:14;;;;;;;12.37;7.60;;;10.60;80.70;;;;;;4953115;28;20329;-81
2022/04/19 04:42:59;;;;;;;13.63;7.60;;;10.50;80.70;;;;;;4969463;28;20491;-81
2022/04/19 04:45:26;;;;;;;15.20;7.37;;;10.50;81.10;;;;;;4953341;28;20039;-80
2022/04/19 04:50:36;;;;;;;11.10;6.83;;;10.40;81.20;;;;;;4969974;28;20110;-79
2022/04/19 04:53:05;;;;;;;12.88;8.35;;;10.40;81.30;;;;;;4969025;28;20026;-80
2022/04/19 04:55:33;;;;;;;14.27;7.93;;;10.40;81.60;;;;;;4968417;28;20122;-80
2022/04/19 04:58:01;;;;;;;12.87;7.67;;;10.40;81.70;;;;;;4968959;28;20030;-79
2022/04/19 05:00:28;;;;;;;13.50;8.15;;;10.40;81.80;;;;;;4969114;28;20023;-80
2022/04/19 05:02:57;;;;;;;13.70;7.40;;;10.40;81.80;;;;;;4969045;28;20129;-80
2022/04/19 05:05:24;;;;;;;13.47;7.50;;;10.40;81.90;;;;;;4982253;28;20018;-80
2022/04/19 05:07:54;;;;;;;13.90;7.33;;;10.50;81.90;;;;;;4953304;28;20526;-80
2022/04/19 05:10:20;;;;;;;14.27;7.97;;;10.40;82.10;;;;;;4968655;28;20027;-81
2022/04/19 05:12:46;;;;;;;14.60;8.03;;;10.40;82.00;;;;;;4974561;28;20466;-80
2022/04/19 05:15:19;;;;;;;13.73;7.83;;;10.40;81.90;;;;;;4988380;28;20147;-81
2022/04/19 05:17:46;;;;;;;14.60;8.40;;;10.50;82.10;;;;;;4988107;28;20030;-81
2022/04/19 05:20:13;;;;;;;14.53;8.13;;;10.50;82.00;;;;;;4988266;28;20129;-81
2022/04/19 05:22:40;;;;;;;13.50;8.70;;;10.60;81.80;;;;;;4971692;28;20367;-81
2022/04/19 05:25:08;;;;;;;17.17;8.77;;;10.60;81.80;;;;;;4987306;28;20022;-81
2022/04/19 05:27:34;;;;;;;13.97;8.30;;;10.60;81.80;;;;;;4987773;28;20510;-81
2022/04/19 05:30:00;;;;;;;16.53;9.40;;;10.60;82.00;;;;;;4989001;28;20111;-81
2022/04/19 05:32:27;;;;;;;21.37;10.07;;;10.60;82.00;;;;;;4972313;28;20023;-81
2022/04/19 05:34:53;;;;;;;15.87;9.00;;;10.60;81.80;;;;;;4988056;28;20093;-81
2022/04/19 05:37:20;;;;;;;14.87;9.37;;;10.60;81.80;;;;;;4988255;28;20121;-81
2022/04/19 05:39:45;;;;;;;15.30;9.30;;;10.70;81.90;;;;;;4970669;28;20531;-81
2022/04/19 05:42:12;;;;;;;16.30;9.43;;;10.70;81.80;;;;;;4987834;28;20088;-81
2022/04/19 05:44:38;;;;;;;15.77;9.40;;;10.80;81.60;;;;;;4987767;28;20092;-85
2022/04/19 05:47:04;;;;;;;14.93;9.47;;;10.80;81.60;;;;;;4988169;28;20030;-83
2022/04/19 05:49:30;;;;;;;14.90;8.90;;;10.80;81.50;;;;;;4987968;28;20479;-83
2022/04/19 05:51:56;;;;;;;19.23;9.07;;;10.80;81.40;;;;;;4988366;28;20110;-84
2022/04/19 05:54:21;;;;;;;15.43;9.03;;;10.90;84.00;;;;;;4986676;28;20142;-84
2022/04/19 05:56:55;;;;;;;16.23;9.23;;;11.00;83.10;;;;;;4988174;28;20042;-85
2022/04/19 05:59:21;;;;;;;17.83;9.40;;;11.10;82.60;;;;;;4988011;28;20031;-84
2022/04/19 06:07:15;;;;;;;18.90;9.07;;;11.30;81.30;;;;;;4989337;28;20487;-85
2022/04/19 06:09:41;;;;;;;18.57;9.27;;;11.40;80.80;;;;;;4990613;28;20056;-81
2022/04/19 06:14:40;;;;;;;13.67;8.63;;;11.50;79.50;;;;;;4951703;28;20047;-68
2022/04/19 06:17:06;;;;;;;18.13;8.87;;;11.50;78.90;;;;;;4953548;28;20186;-67
2022/04/19 06:19:33;;;;;;;15.07;8.97;;;11.60;78.80;;;;;;4953236;28;20031;-67
2022/04/19 06:21:59;;;;;;;15.23;7.87;;;11.60;78.60;;;;;;4953456;29;20042;-69
2022/04/19 06:24:25;;;;;;;14.90;8.97;;;11.60;78.80;;;;;;4953157;29;20499;-68
2022/04/19 06:26:52;;;;;;;19.13;8.73;;;11.70;78.10;;;;;;4969959;28;20033;-67
2022/04/19 06:29:20;;;;;;;16.20;9.52;;;11.70;78.90;;;;;;4953230;28;20113;-68
2022/04/19 06:31:54;;;;;;;15.07;8.93;;;11.70;77.90;;;;;;4953367;29;20035;-68
2022/04/19 06:34:30;;;;;;;16.33;8.93;;;11.80;77.70;;;;;;4938815;29;20110;-69
2022/04/19 06:37:10;;;;;;;18.50;9.73;;;11.90;77.50;;;;;;4953248;28;20039;-70
2022/04/19 06:39:41;;;;;;;18.03;9.57;;;11.90;77.60;;;;;;4952589;28;20027;-67
2022/04/19 06:42:08;;;;;;;18.10;9.80;;;12.00;77.40;;;;;;4953527;28;20031;-70
2022/04/19 06:44:54;;;;;;;15.87;9.50;;;12.00;77.10;;;;;;4960531;28;20084;-67
2022/04/19 06:47:25;;;;;;;19.60;9.43;;;12.00;75.90;;;;;;4953168;28;20027;-65
2022/04/19 06:49:57;;;;;;;16.67;9.00;;;12.10;76.10;;;;;;4952852;28;20492;-69
2022/04/19 06:52:25;;;;;;;14.90;7.87;;;12.10;76.00;;;;;;4953129;28;20396;-67
2022/04/19 06:54:52;;;;;;;15.57;8.90;;;12.10;76.10;;;;;;4951954;29;20058;-68
2022/04/19 06:57:18;;;;;;;16.87;8.80;;;12.20;75.20;;;;;;4952728;28;20039;-68
2022/04/19 06:59:45;;;;;;;15.40;8.77;;;12.20;75.00;;;;;;4952549;28;20125;-67
2022/04/19 07:02:12;;;;;;;16.30;8.97;;;12.20;74.70;;;;;;4952559;29;20027;-68
2022/04/19 07:04:57;;;;;;;13.03;8.30;;;12.30;74.40;;;;;;4953885;29;20040;-69
2022/04/19 07:07:23;;;;;;;15.33;8.03;;;12.30;74.00;;;;;;4952486;29;20031;-72
2022/04/19 07:09:50;;;;;;;15.27;8.53;;;12.30;73.90;;;;;;4952431;28;20496;-68
2022/04/19 07:12:20;;;;;;;15.20;8.83;;;12.40;74.00;;;;;;4953561;28;20065;-68
2022/04/19 07:15:13;;;;;;;15.33;8.47;;;12.40;73.80;;;;;;4953243;28;20058;-68
2022/04/19 07:17:44;;;;;;;17.00;8.50;;;12.50;73.90;;;;;;4952933;28;20448;-71
2022/04/19 07:28:26;;;;;;;14.57;7.73;;;12.60;72.10;;;;;;4967694;28;20137;-69
2022/04/19 07:30:52;;;;;;;14.37;7.80;;;12.70;71.20;;;;;;4951715;28;20069;-68
2022/04/19 07:33:20;;;;;;;14.17;8.03;;;12.70;70.90;;;;;;4967752;28;20089;-68
2022/04/19 07:35:47;;;;;;;12.07;7.60;;;12.80;70.70;;;;;;4952045;28;20164;-67
2022/04/19 07:38:13;;;;;;;14.27;7.50;;;12.80;70.30;;;;;;4967850;28;20035;-70
2022/04/19 07:41:00;;;;;;;11.87;7.50;;;12.80;70.20;;;;;;4941716;28;20464;-70
2022/04/19 07:43:26;;;;;;;16.43;8.27;;;12.90;70.90;;;;;;4952033;28;20039;-68
2022/04/19 07:45:52;;;;;;;12.17;7.63;;;12.90;70.10;;;;;;4951613;28;20049;-69
2022/04/19 07:48:18;;;;;;;13.67;7.57;;;13.00;70.10;;;;;;4951854;28;20027;-68
2022/04/19 07:50:45;;;;;;;12.90;7.43;;;13.00;69.50;;;;;;4951819;28;20027;-70
2022/04/19 07:53:11;;;;;;;13.23;7.83;;;13.00;69.80;;;;;;4952706;28;20038;-68
2022/04/19 07:55:38;;;;;;;14.40;7.70;;;13.00;70.10;;;;;;4951875;28;20070;-68
2022/04/19 07:58:05;;;;;;;13.53;7.53;;;13.10;70.40;;;;;;4954442;28;20043;-67
2022/04/19 08:00:33;;;;;;;13.17;7.50;;;13.10;69.90;;;;;;4952957;28;20116;-70
2022/04/19 08:02:59;;;;;;;12.93;7.57;;;13.20;69.60;;;;;;4968976;28;20548;-68
2022/04/19 08:05:26;;;;;;;15.80;8.10;;;13.20;71.30;;;;;;4952772;29;20126;-70
2022/04/19 08:07:52;;;;;;;15.30;7.38;;;13.30;70.10;;;;;;4952828;28;20070;-70
2022/04/19 08:10:20;;;;;;;12.53;7.43;;;13.40;69.20;;;;;;4953040;28;20488;-69
2022/04/19 08:12:47;;;;;;;14.53;7.80;;;13.40;69.40;;;;;;4952925;28;20024;-71
2022/04/19 08:15:13;;;;;;;21.90;8.13;;;13.40;68.60;;;;;;4952837;29;20408;-70
2022/04/19 08:17:39;;;;;;;15.10;7.93;;;13.50;67.60;;;;;;4953797;28;20090;-70
2022/04/19 08:20:08;;;;;;;13.73;7.80;;;13.50;67.20;;;;;;4937194;29;20035;-71
2022/04/19 08:22:35;;;;;;;11.47;6.67;;;13.50;67.60;;;;;;4968797;28;20027;-73
2022/04/19 08:25:12;;;;;;;11.63;6.93;;;13.50;67.20;;;;;;4952846;29;20035;-72
2022/04/19 08:27:45;;;;;;;9.60;5.65;;;13.60;67.20;;;;;;4952463;28;20054;-72
2022/04/19 08:30:13;;;;;;;9.97;6.10;;;13.60;67.20;;;;;;4968337;28;20484;-72
2022/04/19 08:32:39;;;;;;;11.48;6.50;;;13.60;66.70;;;;;;4952517;28;20447;-72
2022/04/19 08:35:06;;;;;;;10.63;6.43;;;13.70;65.70;;;;;;4952674;28;20090;-71
2022/04/19 08:37:34;;;;;;;11.90;6.25;;;13.70;65.70;;;;;;4968762;28;20055;-71
2022/04/19 08:40:07;;;;;;;13.15;7.20;;;13.80;65.80;;;;;;4952633;28;20039;-72
2022/04/19 08:42:36;;;;;;;14.27;6.23;;;13.80;65.20;;;;;;4952606;28;20039;-73
2022/04/19 08:45:07;;;;;;;11.45;7.22;;;13.80;65.30;;;;;;4953756;28;20389;-71
2022/04/19 08:47:38;;;;;;;13.25;6.47;;;13.90;65.20;;;;;;4953461;28;20035;-71
2022/04/19 08:50:17;;;;;;;12.15;6.30;;;13.90;65.20;;;;;;4953731;29;20503;-72
2022/04/19 08:52:44;;;;;;;13.25;6.95;;;13.90;65.40;;;;;;4953536;28;20078;-72
2022/04/19 08:57:56;;;;;;;11.93;6.20;;;14.10;65.60;;;;;;4953143;28;20472;-72
2022/04/19 09:00:24;;;;;;;12.02;5.75;;;14.20;65.00;;;;;;4953539;29;20094;-72
2022/04/19 09:02:54;;;;;;;10.02;5.28;;;14.20;65.40;;;;;;4953471;28;20046;-72
2022/04/19 09:05:23;;;;;;;11.63;5.90;;;14.20;65.50;;;;;;4968157;28;20050;-72
2022/04/19 09:07:51;;;;;;;10.02;5.78;;;14.20;65.60;;;;;;4953236;28;20484;-72
2022/04/19 09:10:34;;;;;;;9.18;5.60;;;14.30;65.60;;;;;;4953454;28;20465;-72
2022/04/19 09:13:10;;;;;;;8.43;5.18;;;14.30;65.60;;;;;;4951808;28;20497;-72
2022/04/19 09:15:38;;;;;;;9.55;5.63;;;14.30;65.70;;;;;;4953542;28;20041;-71
2022/04/19 09:18:05;;;;;;;8.55;5.57;;;14.40;65.50;;;;;;4952846;29;20289;-71
2022/04/19 09:20:32;;;;;;;8.65;5.07;;;14.40;65.70;;;;;;4954181;28;20508;-71
2022/04/19 09:23:04;;;;;;;9.57;5.28;;;14.40;65.70;;;;;;4936510;29;20038;-73
2022/04/19 09:25:30;;;;;;;8.45;4.93;;;14.40;65.60;;;;;;4952612;29;20031;-71
2022/04/19 09:27:57;;;;;;;9.43;5.70;;;14.50;65.70;;;;;;4953061;28;20046;-72
2022/04/19 09:30:27;;;;;;;7.45;4.88;;;14.50;65.30;;;;;;4953164;28;20035;-71
2022/04/19 09:33:04;;;;;;;8.43;4.57;;;14.60;65.70;;;;;;4951696;29;20484;-71
2022/04/19 09:35:34;;;;;;;8.65;4.60;;;14.60;66.20;;;;;;4952933;28;20067;-71
2022/04/19 09:38:00;;;;;;;10.27;4.40;;;14.60;65.90;;;;;;4953022;28;20264;-70
2022/04/19 09:40:32;;;;;;;7.90;4.10;;;14.70;65.90;;;;;;4952952;28;20118;-71
2022/04/19 09:43:10;;;;;;;6.05;3.70;;;14.80;65.70;;;;;;4952154;28;20039;-71
2022/04/19 09:45:50;;;;;;;6.70;3.67;;;14.80;65.50;;;;;;4951585;28;20404;-71
2022/04/19 09:48:27;;;;;;;6.38;3.42;;;14.80;65.50;;;;;;4951546;29;20035;-71
2022/04/19 09:51:04;;;;;;;6.68;3.42;;;14.90;65.50;;;;;;4952740;28;20030;-72
2022/04/19 09:53:38;;;;;;;6.43;3.80;;;14.80;65.50;;;;;;4952820;28;20042;-72
2022/04/19 09:56:17;;;;;;;7.07;3.72;;;14.90;65.70;;;;;;4952790;28;20041;-71
2022/04/19 09:58:46;;;;;;;7.55;3.72;;;14.90;65.40;;;;;;4951415;28;20035;-71
2022/04/19 10:09:36;;;;;;;6.70;3.80;;;15.10;64.90;;;;;;4952652;28;20381;-71
2022/04/19 10:12:11;;;;;;;7.22;3.65;;;15.10;64.90;;;;;;4952731;28;20484;-72
2022/04/19 10:14:39;;;;;;;6.53;3.72;;;15.10;65.40;;;;;;4951792;29;20031;-72
2022/04/19 10:17:05;;;;;;;7.30;3.17;;;15.20;65.30;;;;;;4952461;28;20031;-72
2022/04/19 10:19:32;;;;;;;7.47;3.75;;;15.20;64.00;;;;;;4952635;28;20032;-72
2022/04/19 10:22:07;;;;;;;7.50;3.60;;;15.20;64.20;;;;;;4967622;28;20054;-69
2022/04/19 10:24:50;;;;;;;7.45;4.05;;;15.20;64.60;;;;;;4953084;28;20501;-71
2022/04/19 10:27:16;;;;;;;6.80;3.67;;;15.20;64.20;;;;;;4951942;28;20073;-71
2022/04/19 10:29:46;;;;;;;8.43;3.65;;;15.20;64.80;;;;;;4967759;28;20507;-70
2022/04/19 10:32:12;;;;;;;9.35;4.47;;;15.20;65.30;;;;;;4952715;28;20070;-71
2022/04/19 10:34:40;;;;;;;7.93;3.75;;;15.30;64.70;;;;;;4953219;28;20053;-70
2022/04/19 10:37:13;;;;;;;7.28;3.80;;;15.30;64.70;;;;;;4967857;28;20147;-72
2022/04/19 10:39:47;;;;;;;7.63;4.25;;;15.30;64.30;;;;;;4951767;29;20075;-72
2022/04/19 10:42:29;;;;;;;7.60;4.00;;;15.30;63.90;;;;;;4951704;29;20039;-72
2022/04/19 10:44:56;;;;;;;9.13;4.30;;;15.30;64.50;;;;;;4952657;28;20046;-71
2022/04/19 10:47:23;;;;;;;10.18;4.68;;;15.30;64.90;;;;;;4952448;28;20027;-71
2022/04/19 10:49:59;;;;;;;7.18;4.43;;;15.30;64.40;;;;;;4951351;29;20511;-70
2022/04/19 10:52:40;;;;;;;8.90;4.70;;;15.30;64.90;;;;;;4951361;28;20035;-71
2022/04/19 10:55:08;;;;;;;10.63;4.28;;;15.40;65.80;;;;;;4956243;28;20039;-72
2022/04/19 11:00:35;;;;;;;10.13;4.68;;;15.40;65.00;;;;;;4970680;28;20047;-70
2022/04/19 11:03:02;;;;;;;6.38;3.90;;;15.50;65.00;;;;;;4955669;28;20113;-71
2022/04/19 11:05:55;;;;;;;7.97;4.10;;;15.50;64.80;;;;;;4955988;28;20063;-71
2022/04/19 11:08:25;;;;;;;7.75;4.35;;;15.50;64.90;;;;;;4956047;28;20046;-73
2022/04/19 11:11:03;;;;;;;7.22;3.88;;;15.60;64.60;;;;;;4955985;28;20488;-71
2022/04/19 11:13:31;;;;;;;9.50;4.82;;;15.60;64.80;;;;;;4954297;28;20480;-71
2022/04/19 11:16:07;;;;;;;10.52;4.78;;;15.70;64.20;;;;;;4970527;28;20027;-72
2022/04/19 11:18:53;;;;;;;9.85;5.10;;;15.70;64.60;;;;;;4955333;28;20057;-71
2022/04/19 11:21:46;;;;;;;11.05;4.72;;;15.80;64.30;;;;;;4955723;28;20035;-73
2022/04/19 11:24:12;;;;;;;8.55;4.45;;;15.80;63.60;;;;;;4955594;28;20472;-71
2022/04/19 11:26:41;;;;;;;9.07;4.43;;;15.90;63.60;;;;;;4955418;28;20027;-71
2022/04/19 11:29:12;;;;;;;11.38;4.85;;;15.90;63.20;;;;;;4954411;29;20476;-72
2022/04/19 11:31:44;;;;;;;10.15;4.55;;;16.00;63.60;;;;;;4970203;28;20031;-71
2022/04/19 11:34:11;;;;;;;9.98;4.20;;;16.00;63.70;;;;;;4955150;28;20067;-71
2022/04/19 11:36:37;;;;;;;7.68;4.18;;;15.90;63.50;;;;;;4970017;28;20036;-72
2022/04/19 11:39:04;;;;;;;9.77;4.43;;;15.90;63.70;;;;;;4955072;28;20034;-70
2022/04/19 11:47:02;;;;;;;6.60;3.90;;;15.90;63.50;;;;;;4954699;28;20488;-72
2022/04/19 11:49:34;;;;;;;7.47;4.25;;;15.90;63.20;;;;;;4954751;28;20035;-73
2022/04/19 11:52:09;;;;;;;6.50;4.00;;;15.90;63.80;;;;;;4955094;28;20054;-72
2022/04/19 11:54:35;;;;;;;8.25;4.38;;;16.00;64.10;;;;;;4954917;28;20031;-71
2022/04/19 11:57:04;;;;;;;7.07;4.40;;;16.00;63.50;;;;;;4955111;28;20043;-70
2022/04/19 11:59:52;;;;;;;8.68;4.05;;;16.00;62.90;;;;;;4954817;28;20046;-72
2022/04/19 12:02:20;;;;;;;6.00;3.60;;;16.10;62.70;;;;;;4954513;29;20050;-71
2022/04/19 12:04:57;;;;;;;7.80;3.80;;;16.10;63.30;;;;;;4953731;28;20031;-72
2022/04/19 12:07:27;;;;;;;7.38;3.97;;;16.00;63.80;;;;;;4954217;28;20038;-71
2022/04/19 12:09:53;;;;;;;7.53;4.05;;;16.00;62.60;;;;;;4954670;28;20114;-71
2022/04/19 12:12:20;;;;;;;5.78;3.58;;;16.20;63.20;;;;;;4954154;28;20031;-71
2022/04/19 12:14:53;;;;;;;8.93;4.05;;;16.20;63.60;;;;;;4954440;28;20035;-71
2022/04/19 12:17:20;;;;;;;9.07;3.85;;;16.30;61.70;;;;;;4954051;28;20043;-71
2022/04/19 12:19:46;;;;;;;8.75;4.13;;;16.30;62.20;;;;;;4953024;29;20031;-71
2022/04/19 12:22:19;;;;;;;9.57;4.03;;;16.40;61.80;;;;;;4954095;28;20488;-71
2022/04/19 12:24:47;;;;;;;9.00;3.70;;;16.40;61.30;;;;;;4952667;29;20066;-71
2022/04/19 12:27:13;;;;;;;7.10;3.88;;;16.40;60.50;;;;;;4954244;28;20448;-71
2022/04/19 12:29:56;;;;;;;7.43;3.83;;;16.40;60.50;;;;;;4953739;28;20031;-71
2022/04/19 12:32:22;;;;;;;6.15;3.33;;;16.40;61.30;;;;;;4953834;28;20027;-71
2022/04/19 12:34:47;;;;;;;6.50;3.47;;;16.30;61.90;;;;;;4953758;28;20040;-71
2022/04/19 12:37:18;;;;;;;7.50;4.15;;;16.40;61.90;;;;;;4954024;28;20546;-71
2022/04/19 12:39:58;;;;;;;9.45;3.80;;;16.40;62.70;;;;;;4953937;28;20369;-71
2022/04/19 12:42:24;;;;;;;7.72;4.25;;;16.40;62.60;;;;;;4953627;28;20086;-71
2022/04/19 12:45:06;;;;;;;6.70;3.45;;;16.40;62.40;;;;;;4952496;29;20031;-71
2022/04/19 12:47:33;;;;;;;5.90;3.05;;;16.50;60.70;;;;;;4952254;28;20443;-71
2022/04/19 12:50:13;;;;;;;6.38;3.80;;;16.50;60.90;;;;;;4953823;28;20094;-71
2022/04/19 12:52:40;;;;;;;5.68;3.08;;;16.50;61.10;;;;;;4953602;28;20031;-71
2022/04/19 12:55:09;;;;;;;6.13;3.17;;;16.50;61.40;;;;;;4953810;28;20055;-71
2022/04/19 12:57:38;;;;;;;5.40;2.90;;;16.50;60.80;;;;;;4953147;28;20027;-71
2022/04/19 13:00:09;;;;;;;10.27;3.95;;;16.50;60.80;;;;;;4953513;28;20123;-71
2022/04/19 13:02:40;;;;;;;5.45;3.47;;;16.50;61.70;;;;;;4953370;28;20038;-71
2022/04/19 13:05:06;;;;;;;7.28;4.15;;;16.50;61.90;;;;;;4953227;28;20031;-71
2022/04/19 13:13:05;;;;;;;7.10;3.33;;;16.60;62.70;;;;;;4953145;29;20062;-71
2022/04/19 13:15:32;;;;;;;6.15;3.28;;;16.60;62.90;;;;;;4953189;28;20110;-71
2022/04/19 13:17:58;;;;;;;8.70;3.47;;;16.60;63.20;;;;;;4953092;28;20038;-72
2022/04/19 13:20:25;;;;;;;8.65;3.20;;;16.70;63.00;;;;;;4953192;28;20514;-73
2022/04/19 13:22:50;;;;;;;6.28;3.03;;;16.70;62.10;;;;;;4953190;28;20542;-72
2022/04/19 13:25:20;;;;;;;5.72;2.58;;;16.70;60.60;;;;;;4953292;28;20110;-71
2022/04/19 13:27:50;;;;;;;6.13;3.30;;;16.70;61.30;;;;;;4952897;28;20098;-72
2022/04/19 13:30:18;;;;;;;5.72;3.10;;;16.70;62.30;;;;;;4953168;28;20023;-73
2022/04/19 13:32:45;;;;;;;6.65;2.85;;;16.60;62.50;;;;;;4953009;28;20046;-71
2022/04/19 13:35:11;;;;;;;4.93;2.63;;;16.70;62.10;;;;;;4951785;29;20041;-72
2022/04/19 13:40:21;;;;;;;8.48;3.63;;;16.70;61.60;;;;;;4953198;29;20035;-72
2022/04/19 13:42:49;;;;;;;7.38;3.17;;;16.70;61.60;;;;;;4952955;28;20496;-71
2022/04/19 13:45:17;;;;;;;6.25;3.20;;;16.70;62.50;;;;;;4952845;28;20488;-70
2022/04/19 13:47:43;;;;;;;6.60;2.67;;;16.70;62.60;;;;;;4951430;28;20417;-70